createdAt,value
2018-07-14T00:02:01.611Z,99243.41
2018-07-14T00:04:29.972Z,99240.10
2018-07-14T00:06:58.425Z,99241.88
2018-07-14T00:09:26.777Z,99238.17
2018-07-14T00:11:55.187Z,99243.33
2018-07-14T00:14:23.544Z,99243.45
2018-07-14T00:16:51.895Z,99245.77
2018-07-14T00:19:20.305Z,99245.05
2018-07-14T00:21:48.639Z,99239.02
2018-07-14T00:24:17.011Z,99234.73
2018-07-14T00:26:45.395Z,99237.05
2018-07-14T00:29:13.719Z,99235.88
2018-07-14T00:31:42.103Z,99232.91
2018-07-14T00:34:11.419Z,99235.03
2018-07-14T00:36:39.791Z,99235.58
2018-07-14T00:39:08.188Z,99235.35
2018-07-14T00:41:36.553Z,99240.57
2018-07-14T00:44:04.935Z,99226.64
2018-07-14T00:46:33.287Z,99228.51
2018-07-14T00:49:01.598Z,99234.70
2018-07-14T00:51:30.005Z,99229.02
2018-07-14T00:53:58.371Z,99232.89
2018-07-14T00:56:26.826Z,99231.83
2018-07-14T00:58:55.133Z,99235.20
2018-07-14T01:01:23.468Z,99230.29
2018-07-14T01:03:51.768Z,99236.73
2018-07-14T01:06:20.160Z,99234.97
2018-07-14T01:08:48.864Z,99231.13
2018-07-14T01:11:17.229Z,99234.16
2018-07-14T01:13:45.544Z,99224.99
2018-07-14T01:16:13.897Z,99223.04
2018-07-14T01:18:42.216Z,99228.67
2018-07-14T01:21:10.627Z,99233.44
2018-07-14T01:23:39.008Z,99230.41
2018-07-14T01:26:07.392Z,99233.28
2018-07-14T01:28:35.696Z,99230.06
2018-07-14T01:31:04.149Z,99233.32
2018-07-14T01:33:32.590Z,99232.02
2018-07-14T01:36:00.958Z,99232.02
2018-07-14T01:38:29.400Z,99230.67
2018-07-14T01:40:57.875Z,99227.67
2018-07-14T01:43:26.196Z,99227.38
2018-07-14T01:45:54.559Z,99230.78
2018-07-14T01:48:22.900Z,99222.58
2018-07-14T01:50:52.855Z,99225.08
2018-07-14T01:53:21.328Z,99233.77
2018-07-14T01:55:49.785Z,99218.75
2018-07-14T01:58:18.282Z,99233.41
2018-07-14T02:00:46.635Z,99228.80
2018-07-14T02:03:14.984Z,99227.92
2018-07-14T02:05:43.340Z,99224.97
2018-07-14T02:08:11.703Z,99225.66
2018-07-14T02:10:40.154Z,99221.44
2018-07-14T02:13:08.625Z,99211.23
2018-07-14T02:15:37.023Z,99213.06
2018-07-14T02:18:05.362Z,99214.14
2018-07-14T02:20:33.704Z,99213.37
2018-07-14T02:23:02.023Z,99208.16
2018-07-14T02:25:30.348Z,99216.39
2018-07-14T02:27:58.692Z,99209.80
2018-07-14T02:30:27.020Z,99217.80
2018-07-14T02:32:55.405Z,99215.96
2018-07-14T02:35:23.713Z,99216.89
2018-07-14T02:37:52.106Z,99224.14
2018-07-14T02:40:20.417Z,99225.53
2018-07-14T02:42:48.823Z,99226.88
2018-07-14T02:45:17.274Z,99222.25
2018-07-14T02:47:45.668Z,99223.03
2018-07-14T02:50:14.006Z,99223.46
2018-07-14T02:52:42.476Z,99223.61
2018-07-14T02:55:10.819Z,99226.19
2018-07-14T02:57:39.175Z,99224.09
2018-07-14T03:00:07.522Z,99228.02
2018-07-14T03:02:35.904Z,99233.94
2018-07-14T03:05:04.219Z,99227.52
2018-07-14T03:07:32.572Z,99226.97
2018-07-14T03:10:00.906Z,99231.06
2018-07-14T03:12:29.276Z,99223.30
2018-07-14T03:14:57.582Z,99221.77
2018-07-14T03:17:25.953Z,99219.16
2018-07-14T03:19:54.292Z,99223.30
2018-07-14T03:22:22.688Z,99229.52
2018-07-14T03:24:51.006Z,99235.46
2018-07-14T03:27:19.360Z,99232.27
2018-07-14T03:29:47.685Z,99236.21
2018-07-14T03:32:16.067Z,99232.96
2018-07-14T03:34:44.440Z,99240.22
2018-07-14T03:37:12.853Z,99236.31
2018-07-14T03:39:41.175Z,99238.27
2018-07-14T03:42:09.647Z,99237.68
2018-07-14T03:44:38.653Z,99235.70
2018-07-14T03:47:06.999Z,99234.81
2018-07-14T03:49:35.340Z,99237.47
2018-07-14T03:52:03.726Z,99231.91
2018-07-14T03:54:32.089Z,99232.55
2018-07-14T03:57:00.495Z,99223.59
2018-07-14T03:59:28.884Z,99222.36
2018-07-14T04:01:57.827Z,99229.20
2018-07-14T04:04:26.186Z,99224.20
2018-07-14T04:06:54.515Z,99223.15
2018-07-14T04:09:22.878Z,99219.34
2018-07-14T04:11:51.261Z,99219.57
2018-07-14T04:14:19.619Z,99219.39
2018-07-14T04:16:47.999Z,99222.21
2018-07-14T04:19:16.439Z,99217.78
2018-07-14T04:21:44.806Z,99216.20
2018-07-14T04:24:13.165Z,99220.45
2018-07-14T04:26:41.492Z,99220.75
2018-07-14T04:29:09.827Z,99223.13
2018-07-14T04:31:38.214Z,99227.80
2018-07-14T04:34:06.573Z,99229.39
2018-07-14T04:36:34.898Z,99230.78
2018-07-14T04:39:03.809Z,99227.12
2018-07-14T04:41:32.166Z,99228.21
2018-07-14T04:44:00.602Z,99226.27
2018-07-14T04:46:28.918Z,99228.80
2018-07-14T04:48:57.353Z,99226.91
2018-07-14T04:51:25.774Z,99233.86
2018-07-14T04:53:54.148Z,99236.08
2018-07-14T04:56:22.590Z,99240.13
2018-07-14T04:58:51.412Z,99244.01
2018-07-14T05:01:19.732Z,99242.23
2018-07-14T05:03:48.203Z,99243.63
2018-07-14T05:06:16.637Z,99242.75
2018-07-14T05:08:45.024Z,99240.28
2018-07-14T05:11:13.363Z,99248.81
2018-07-14T05:13:41.726Z,99246.45
2018-07-14T05:16:10.092Z,99248.34
2018-07-14T05:18:38.432Z,99249.16
2018-07-14T05:21:06.851Z,99250.64
2018-07-14T05:23:35.234Z,99254.14
2018-07-14T05:26:03.593Z,99253.16
2018-07-14T05:28:32.004Z,99249.70
2018-07-14T05:31:00.395Z,99256.09
2018-07-14T05:33:43.487Z,99255.45
2018-07-14T05:36:12.336Z,99243.95
2018-07-14T05:38:40.702Z,99241.26
2018-07-14T05:41:09.047Z,99238.11
2018-07-14T05:43:37.411Z,99238.80
2018-07-14T05:46:05.772Z,99241.16
2018-07-14T05:48:34.136Z,99243.71
2018-07-14T05:51:02.500Z,99247.45
2018-07-14T05:53:30.883Z,99251.87
2018-07-14T05:55:59.233Z,99254.20
2018-07-14T05:58:27.594Z,99257.06
2018-07-14T06:00:56.023Z,99266.07
2018-07-14T06:03:24.400Z,99266.41
2018-07-14T06:05:52.727Z,99267.50
2018-07-14T06:08:21.080Z,99267.39
2018-07-14T06:10:49.934Z,99265.37
2018-07-14T06:13:18.428Z,99264.02
2018-07-14T06:15:50.680Z,99261.50
2018-07-14T06:18:19.095Z,99267.23
2018-07-14T06:20:47.440Z,99266.25
2018-07-14T06:23:15.872Z,99267.77
2018-07-14T06:25:44.203Z,99266.28
2018-07-14T06:28:13.702Z,99264.23
2018-07-14T06:30:42.247Z,99264.06
2018-07-14T06:33:10.660Z,99270.97
2018-07-14T06:35:39.874Z,99264.28
2018-07-14T06:38:09.710Z,99271.03
2018-07-14T06:40:40.505Z,99279.09
2018-07-14T06:43:08.880Z,99274.06
2018-07-14T06:45:37.324Z,99278.41
2018-07-14T06:48:05.652Z,99286.19
2018-07-14T06:50:36.165Z,99287.53
2018-07-14T06:53:04.923Z,99286.19
2018-07-14T06:55:33.280Z,99284.01
2018-07-14T06:58:02.350Z,99288.73
2018-07-14T07:00:43.018Z,99291.98
2018-07-14T07:03:11.357Z,99283.37
2018-07-14T07:05:39.764Z,99287.06
2018-07-14T07:08:08.173Z,99281.83
2018-07-14T07:10:36.546Z,99286.05
2018-07-14T07:13:04.898Z,99279.11
2018-07-14T07:15:33.286Z,99273.08
2018-07-14T07:18:01.659Z,99273.42
2018-07-14T07:20:30.132Z,99272.59
2018-07-14T07:22:58.477Z,99275.23
2018-07-14T07:25:26.960Z,99266.97
2018-07-14T07:27:56.472Z,99271.35
2018-07-14T07:30:24.877Z,99273.20
2018-07-14T07:32:53.260Z,99267.31
2018-07-14T07:35:21.721Z,99274.37
2018-07-14T07:37:50.341Z,99271.80
2018-07-14T07:40:18.980Z,99263.97
2018-07-14T07:42:48.085Z,99269.00
2018-07-14T07:45:16.455Z,99265.14
2018-07-14T07:47:44.795Z,99265.62
2018-07-14T07:50:13.165Z,99263.05
2018-07-14T07:52:41.506Z,99265.23
2018-07-14T07:55:09.977Z,99265.38
2018-07-14T07:57:38.668Z,99262.45
2018-07-14T08:00:07.208Z,99263.34
2018-07-14T08:02:35.533Z,99258.62
2018-07-14T08:05:03.998Z,99262.48
2018-07-14T08:07:32.343Z,99259.17
2018-07-14T08:10:00.820Z,99255.30
2018-07-14T08:12:29.174Z,99256.28
2018-07-14T08:14:57.564Z,99258.55
2018-07-14T08:17:25.899Z,99261.63
2018-07-14T08:19:54.746Z,99256.66
2018-07-14T08:22:23.064Z,99257.84
2018-07-14T08:24:51.439Z,99256.03
2018-07-14T08:27:21.051Z,99256.03
2018-07-14T08:29:49.505Z,99255.92
2018-07-14T08:32:17.875Z,99258.34
2018-07-14T08:34:46.255Z,99257.03
2018-07-14T08:37:14.583Z,99254.44
2018-07-14T08:39:43.071Z,99258.28
2018-07-14T08:42:11.412Z,99257.03
2018-07-14T08:44:39.770Z,99255.33
2018-07-14T08:47:08.190Z,99245.30
2018-07-14T08:49:36.547Z,99243.19
2018-07-14T08:52:04.952Z,99239.78
2018-07-14T08:54:33.960Z,99238.30
2018-07-14T08:57:02.300Z,99240.13
2018-07-14T08:59:30.757Z,99242.86
2018-07-14T09:01:59.131Z,99240.22
2018-07-14T09:04:27.793Z,99231.69
2018-07-14T09:06:56.236Z,99225.30
2018-07-14T09:09:24.656Z,99231.30
2018-07-14T09:11:53.046Z,99224.98
2018-07-14T09:14:21.444Z,99222.67
2018-07-14T09:16:49.881Z,99230.85
2018-07-14T09:19:18.849Z,99223.91
2018-07-14T09:21:47.241Z,99216.20
2018-07-14T09:24:15.635Z,99217.38
2018-07-14T09:26:44.888Z,99223.16
2018-07-14T09:29:13.721Z,99217.20
2018-07-14T09:31:42.168Z,99215.22
2018-07-14T09:34:10.581Z,99207.37
2018-07-14T09:36:39.326Z,99208.77
2018-07-14T09:39:07.922Z,99207.73
2018-07-14T09:41:36.374Z,99211.02
2018-07-14T09:44:04.780Z,99214.63
2018-07-14T09:46:33.233Z,99214.93
2018-07-14T09:49:01.549Z,99205.16
2018-07-14T09:51:29.906Z,99204.44
2018-07-14T09:53:58.297Z,99202.63
2018-07-14T09:56:26.863Z,99205.34
2018-07-14T09:58:55.390Z,99197.67
2018-07-14T10:01:24.130Z,99197.56
2018-07-14T10:03:53.324Z,99188.35
2018-07-14T10:06:22.388Z,99195.68
2018-07-14T10:08:50.937Z,99189.33
2018-07-14T10:11:19.580Z,99188.27
2018-07-14T10:13:48.677Z,99190.34
2018-07-14T10:16:17.063Z,99180.09
2018-07-14T10:18:45.492Z,99186.13
2018-07-14T10:21:13.874Z,99179.45
2018-07-14T10:23:42.229Z,99179.53
2018-07-14T10:26:10.769Z,99182.38
2018-07-14T10:28:39.190Z,99178.83
2018-07-14T10:31:07.934Z,99183.22
2018-07-14T10:33:36.570Z,99177.16
2018-07-14T10:36:07.556Z,99165.05
2018-07-14T10:38:36.009Z,99169.98
2018-07-14T10:41:04.536Z,99173.47
2018-07-14T10:43:33.129Z,99165.27
2018-07-14T10:46:03.404Z,99166.04
2018-07-14T10:48:31.847Z,99160.80
2018-07-14T11:32:16.061Z,99117.37
2018-07-14T11:34:52.639Z,99122.28
2018-07-14T11:37:23.679Z,99118.22
2018-07-14T11:39:58.041Z,99107.87
2018-07-14T11:42:28.350Z,99106.95
2018-07-14T11:45:01.530Z,99104.51
2018-07-14T11:47:44.527Z,99107.59
2018-07-14T11:50:15.180Z,99095.97
2018-07-14T11:52:49.559Z,99099.52
2018-07-14T11:55:19.411Z,99105.30
2018-07-14T11:57:51.713Z,99102.27
2018-07-14T12:03:01.087Z,99095.98
2018-07-14T12:05:37.811Z,99086.88
2018-07-14T12:08:12.401Z,99088.78
2018-07-14T12:10:46.702Z,99083.58
2018-07-14T12:13:22.097Z,99077.51
2018-07-14T12:16:13.135Z,99080.71
2018-07-14T12:19:14.957Z,99081.20
2018-07-14T12:22:13.624Z,99064.61
2018-07-14T12:25:03.597Z,99060.94
2018-07-14T12:28:03.994Z,99056.23
2018-07-14T12:30:50.514Z,99053.94
2018-07-14T12:33:58.791Z,99048.30
2018-07-14T12:36:38.906Z,99047.39
2018-07-14T12:39:10.838Z,99039.91
2018-07-14T12:41:48.807Z,99049.51
2018-07-14T12:44:27.430Z,99046.88
2018-07-14T12:47:07.683Z,99038.52
2018-07-14T12:49:51.785Z,99041.94
2018-07-14T12:52:24.159Z,99039.73
2018-07-14T12:55:09.553Z,99032.54
2018-07-14T12:57:49.648Z,99031.31
2018-07-14T13:00:30.861Z,99031.17
2018-07-14T13:03:15.664Z,99032.97
2018-07-14T13:05:54.167Z,99020.80
2018-07-14T13:08:26.100Z,99019.36
2018-07-14T13:11:05.307Z,99018.22
2018-07-14T13:13:53.994Z,99008.48
2018-07-14T13:19:21.477Z,99004.95
2018-07-14T13:21:56.447Z,99004.43
2018-07-14T13:24:50.385Z,98996.08
2018-07-14T13:27:31.766Z,99005.44
2018-07-14T13:30:13.420Z,99005.96
2018-07-14T13:32:58.823Z,99006.16
2018-07-14T13:35:41.285Z,99003.47
2018-07-14T13:38:22.087Z,99002.59
2018-07-14T13:40:56.192Z,99003.52
2018-07-14T13:43:47.952Z,98994.38
2018-07-14T13:46:26.220Z,98992.29
2018-07-14T13:49:07.823Z,98993.44
2018-07-14T13:51:58.794Z,98989.84
2018-07-14T13:54:41.418Z,98989.09
2018-07-14T13:57:42.495Z,98992.12
2018-07-14T14:00:18.314Z,98984.25
2018-07-14T14:02:56.430Z,98986.67
2018-07-14T14:05:45.046Z,98985.16
2018-07-14T14:08:23.903Z,98982.28
2018-07-14T14:13:52.716Z,98974.70
2018-07-14T14:16:31.795Z,98967.22
2018-07-14T14:19:11.381Z,98963.11
2018-07-14T14:24:42.094Z,98948.97
2018-07-14T14:30:08.846Z,98949.20
2018-07-14T14:32:48.131Z,98944.56
2018-07-14T14:35:31.416Z,98949.27
2018-07-14T14:38:13.684Z,98942.89
2018-07-14T14:40:47.405Z,98942.19
2018-07-14T14:43:19.167Z,98948.08
2018-07-14T14:45:51.494Z,98951.64
2018-07-14T14:48:23.222Z,98946.15
2018-07-14T14:51:01.610Z,98940.81
2018-07-14T14:53:38.835Z,98944.88
2018-07-14T14:56:16.723Z,98938.36
2018-07-14T14:58:49.615Z,98937.14
2018-07-14T15:01:19.759Z,98942.78
2018-07-14T15:03:53.248Z,98947.41
2018-07-14T15:06:28.732Z,98946.24
2018-07-14T15:09:00.998Z,98939.38
2018-07-14T15:11:31.822Z,98935.39
2018-07-14T15:14:06.668Z,98938.77
2018-07-14T15:16:39.896Z,98943.64
2018-07-14T15:19:13.413Z,98942.94
2018-07-14T15:21:47.177Z,98932.36
2018-07-14T15:24:21.139Z,98930.03
2018-07-14T15:26:53.062Z,98932.88
2018-07-14T15:29:27.709Z,98929.06
2018-07-14T15:32:04.236Z,98929.69
2018-07-14T15:34:34.929Z,98927.01
2018-07-14T15:37:15.109Z,98927.16
2018-07-14T15:39:46.466Z,98930.28
2018-07-14T15:42:16.799Z,98924.73
2018-07-14T15:45:00.669Z,98930.91
2018-07-14T15:47:49.447Z,98930.45
2018-07-14T15:50:18.407Z,98927.83
2018-07-14T15:52:47.515Z,98932.75
2018-07-14T15:55:17.874Z,98930.84
2018-07-14T15:57:50.609Z,98929.72
2018-07-14T16:00:19.313Z,98924.37
2018-07-14T16:02:49.279Z,98926.72
2018-07-14T16:05:22.987Z,98924.72
2018-07-14T16:07:54.077Z,98922.06
2018-07-14T16:10:25.694Z,98924.03
2018-07-14T16:12:59.100Z,98924.09
2018-07-14T16:15:35.100Z,98928.56
2018-07-14T16:18:09.329Z,98924.69
2018-07-14T16:20:44.611Z,98928.45
2018-07-14T16:23:20.040Z,98924.69
2018-07-14T16:25:53.385Z,98926.67
2018-07-14T16:28:27.057Z,98925.38
2018-07-14T16:31:00.512Z,98926.80
2018-07-14T16:33:34.073Z,98925.20
2018-07-14T16:36:08.167Z,98927.89
2018-07-14T16:38:44.340Z,98927.44
2018-07-14T16:41:20.120Z,98923.51
2018-07-14T16:43:52.480Z,98918.45
2018-07-14T16:46:24.816Z,98921.38
2018-07-14T16:48:58.472Z,98924.17
2018-07-14T16:51:31.277Z,98914.91
2018-07-14T16:54:02.287Z,98915.08
2018-07-14T16:56:33.346Z,98910.58
2018-07-14T16:59:07.345Z,98911.98
2018-07-14T17:01:43.871Z,98910.78
2018-07-14T17:04:19.201Z,98916.78
2018-07-14T17:06:57.417Z,98917.15
2018-07-14T17:09:28.700Z,98910.64
2018-07-14T17:12:04.980Z,98908.74
2018-07-14T17:14:37.773Z,98919.30
2018-07-14T17:17:10.469Z,98915.99
2018-07-14T17:19:48.249Z,98927.45
2018-07-14T17:22:28.294Z,98923.94
2018-07-14T17:25:02.448Z,98921.84
2018-07-14T17:27:41.522Z,98921.99
2018-07-14T17:30:18.354Z,98927.14
2018-07-14T17:32:50.674Z,98931.12
2018-07-14T17:35:31.065Z,98923.22
2018-07-14T17:38:07.765Z,98922.95
2018-07-14T17:40:42.032Z,98921.80
2018-07-14T17:43:13.374Z,98924.28
2018-07-14T17:45:46.195Z,98922.45
2018-07-14T17:48:19.131Z,98920.75
2018-07-14T17:50:52.952Z,98923.66
2018-07-14T17:53:29.268Z,98919.55
2018-07-14T17:56:04.352Z,98923.68
2018-07-14T17:58:50.023Z,98927.91
2018-07-14T18:01:31.176Z,98923.09
2018-07-14T18:04:05.868Z,98929.77
2018-07-14T18:06:42.614Z,98934.22
2018-07-14T18:09:36.132Z,98935.00
2018-07-14T18:12:16.645Z,98937.16
2018-07-14T18:14:51.270Z,98941.34
2018-07-14T18:17:30.708Z,98940.11
2018-07-14T18:20:12.655Z,98945.05
2018-07-14T18:22:44.055Z,98947.57
2018-07-14T18:25:17.585Z,98945.28
2018-07-14T18:27:52.792Z,98943.83
2018-07-14T18:30:26.859Z,98938.50
2018-07-14T18:32:58.405Z,98935.13
2018-07-14T18:35:29.701Z,98943.59
2018-07-14T18:38:08.017Z,98941.80
2018-07-14T18:40:43.963Z,98941.92
2018-07-14T18:43:23.100Z,98945.95
2018-07-14T18:46:03.658Z,98947.50
2018-07-14T18:48:42.425Z,98953.73
2018-07-14T18:51:14.287Z,98956.05
2018-07-14T18:53:48.926Z,98947.55
2018-07-14T18:56:46.276Z,98954.25
2018-07-14T18:59:18.904Z,98952.40
2018-07-14T19:01:52.391Z,98952.16
2018-07-14T19:04:23.970Z,98957.95
2018-07-14T19:06:56.336Z,98960.55
2018-07-14T19:09:29.258Z,98965.58
2018-07-14T19:12:05.162Z,98970.38
2018-07-14T19:14:41.910Z,98975.20
2018-07-14T19:17:17.462Z,98969.67
2018-07-14T19:19:55.379Z,98983.15
2018-07-14T19:22:32.981Z,98982.50
2018-07-14T19:25:07.238Z,98983.12
2018-07-14T19:27:49.515Z,98984.98
2018-07-14T19:30:23.807Z,98994.42
2018-07-14T19:32:55.475Z,98992.95
2018-07-14T19:35:27.267Z,98994.45
2018-07-14T19:37:59.686Z,98992.94
2018-07-14T19:40:29.066Z,98998.06
2018-07-14T19:42:59.157Z,99001.08
2018-07-14T19:45:28.717Z,98999.42
2018-07-14T19:47:58.097Z,99004.23
2018-07-14T19:50:27.359Z,99004.47
2018-07-14T19:52:56.887Z,99006.81
2018-07-14T19:55:27.315Z,99013.48
2018-07-14T19:57:56.906Z,99004.77
2018-07-14T20:00:26.138Z,99006.28
2018-07-14T20:02:56.007Z,99005.04
2018-07-14T20:05:24.493Z,99003.50
2018-07-14T20:07:57.497Z,99010.36
2018-07-14T20:10:26.339Z,99008.38
2018-07-14T20:12:54.778Z,99011.75
2018-07-14T20:15:23.201Z,99011.31
2018-07-14T20:17:51.957Z,99008.16
2018-07-14T20:20:20.434Z,99005.54
2018-07-14T20:22:48.900Z,99012.12
2018-07-14T20:25:19.757Z,99011.23
2018-07-14T20:27:48.163Z,99008.41
2018-07-14T20:30:20.279Z,99012.91
2018-07-14T20:32:48.794Z,99012.91
2018-07-14T20:35:17.404Z,99007.67
2018-07-14T20:37:45.815Z,99018.70
2018-07-14T20:40:14.226Z,99015.02
2018-07-14T20:42:42.656Z,99010.80
2018-07-14T20:45:11.010Z,99013.74
2018-07-14T20:47:39.557Z,99016.01
2018-07-14T20:50:07.996Z,99021.11
2018-07-14T20:52:36.432Z,99017.81
2018-07-14T20:55:04.912Z,99027.24
2018-07-14T20:57:33.347Z,99025.73
2018-07-14T21:00:01.774Z,99019.98
2018-07-14T21:02:30.180Z,99023.91
2018-07-14T21:04:58.576Z,99015.82
2018-07-14T21:07:27.030Z,99018.91
2018-07-14T21:09:55.494Z,99013.28
2018-07-14T21:12:24.063Z,99018.08
2018-07-14T21:14:52.434Z,99011.25
2018-07-14T21:17:20.924Z,99015.42
2018-07-14T21:19:49.331Z,99012.64
2018-07-14T21:22:17.732Z,99017.42
2018-07-14T21:24:46.123Z,99016.38
2018-07-14T21:27:14.713Z,99017.87
2018-07-14T21:29:43.157Z,99020.41
2018-07-14T21:32:11.610Z,99019.79
2018-07-14T21:34:40.048Z,99018.24
2018-07-14T21:37:08.515Z,99021.00
2018-07-14T21:39:36.957Z,99027.31
2018-07-14T21:42:05.380Z,99024.41
2018-07-14T21:44:33.796Z,99025.77
2018-07-14T21:47:02.279Z,99033.75
2018-07-14T21:49:30.687Z,99032.09
2018-07-14T21:51:59.098Z,99028.48
2018-07-14T21:54:27.542Z,99039.11
2018-07-14T21:56:55.928Z,99033.37
2018-07-14T21:59:24.296Z,99033.89
2018-07-14T22:01:53.429Z,99034.78
2018-07-14T22:04:22.402Z,99037.56
2018-07-14T22:06:51.732Z,99036.40
2018-07-14T22:09:20.185Z,99036.27
2018-07-14T22:11:48.606Z,99037.88
2018-07-14T22:14:17.056Z,99039.74
2018-07-14T22:16:45.472Z,99041.94
2018-07-14T22:19:13.887Z,99042.41
2018-07-14T22:21:42.300Z,99042.36
2018-07-14T22:24:10.748Z,99043.93
2018-07-14T22:26:39.206Z,99046.11
2018-07-14T22:29:07.698Z,99052.31
2018-07-14T22:31:36.142Z,99051.66
2018-07-14T22:34:04.681Z,99052.25
2018-07-14T22:36:33.175Z,99049.52
2018-07-14T22:39:01.546Z,99053.49
2018-07-14T22:41:30.045Z,99053.14
2018-07-14T22:43:58.578Z,99050.41
2018-07-14T22:46:26.969Z,99050.69
2018-07-14T22:48:55.391Z,99055.03
2018-07-14T22:51:23.843Z,99061.18
2018-07-14T22:53:52.377Z,99051.86
2018-07-14T22:56:20.891Z,99054.64
2018-07-14T22:58:49.351Z,99056.47
2018-07-14T23:01:17.729Z,99047.66
2018-07-14T23:03:46.188Z,99055.76
2018-07-14T23:06:14.686Z,99055.13
2018-07-14T23:08:43.165Z,99055.91
2018-07-14T23:11:11.644Z,99054.58
2018-07-14T23:13:40.095Z,99054.64
2018-07-14T23:16:08.481Z,99057.48
2018-07-14T23:18:37.040Z,99051.29
2018-07-14T23:21:05.534Z,99046.90
2018-07-14T23:23:33.958Z,99052.48
2018-07-14T23:26:02.427Z,99047.75
2018-07-14T23:28:31.232Z,99048.95
2018-07-14T23:30:59.683Z,99047.61
2018-07-14T23:33:28.312Z,99048.11
2018-07-14T23:35:57.227Z,99051.78
2018-07-14T23:38:25.844Z,99045.73
2018-07-14T23:40:54.313Z,99057.34
2018-07-14T23:43:22.732Z,99044.57
2018-07-14T23:45:51.125Z,99047.59
2018-07-14T23:48:19.518Z,99048.58
2018-07-14T23:50:48.023Z,99045.88
2018-07-14T23:53:16.620Z,99047.61
2018-07-14T23:55:45.024Z,99045.94
2018-07-14T23:58:13.603Z,99046.77
